createdAt,value
2019-04-29T00:01:22.885Z,2.52
2019-04-29T00:03:51.000Z,2.15
2019-04-29T00:06:18.275Z,1.87
2019-04-29T00:08:45.572Z,1.85
2019-04-29T00:11:12.843Z,2.40
2019-04-29T00:13:40.126Z,1.77
2019-04-29T00:16:07.409Z,1.87
2019-04-29T00:18:34.447Z,1.95
2019-04-29T00:21:01.481Z,2.52
2019-04-29T00:23:28.524Z,1.80
2019-04-29T00:25:55.555Z,2.12
2019-04-29T00:28:22.680Z,1.70
2019-04-29T00:30:49.721Z,2.12
2019-04-29T00:33:17.068Z,2.05
2019-04-29T00:35:44.426Z,1.80
2019-04-29T00:38:11.647Z,1.80
2019-04-29T00:40:38.677Z,1.80
2019-04-29T00:43:05.946Z,1.95
2019-04-29T00:45:33.001Z,1.95
2019-04-29T00:48:00.267Z,1.72
2019-04-29T00:50:27.313Z,2.10
2019-04-29T00:52:54.593Z,2.00
2019-04-29T00:55:21.890Z,2.08
2019-04-29T00:57:49.177Z,1.90
2019-04-29T01:00:16.219Z,2.27
2019-04-29T01:02:43.249Z,2.30
2019-04-29T01:05:10.539Z,2.10
2019-04-29T01:07:37.816Z,2.27
2019-04-29T01:10:05.107Z,2.45
2019-04-29T01:12:32.135Z,2.08
2019-04-29T01:14:59.176Z,2.15
2019-04-29T01:17:26.208Z,2.30
2019-04-29T01:19:54.223Z,2.55
2019-04-29T01:22:21.247Z,2.58
2019-04-29T01:24:48.299Z,2.72
2019-04-29T01:27:15.327Z,3.42
2019-04-29T01:29:42.642Z,3.20
2019-04-29T01:32:09.910Z,2.60
2019-04-29T01:34:36.950Z,3.08
2019-04-29T01:37:04.223Z,3.02
2019-04-29T01:39:31.268Z,3.45
2019-04-29T01:41:58.298Z,3.37
2019-04-29T01:44:25.349Z,4.30
2019-04-29T01:46:52.628Z,4.17
2019-04-29T01:49:19.890Z,4.20
2019-04-29T01:51:46.935Z,4.35
2019-04-29T01:54:13.964Z,4.22
2019-04-29T01:56:41.013Z,4.58
2019-04-29T01:59:08.045Z,4.75
2019-04-29T02:01:35.096Z,4.60
2019-04-29T02:04:02.128Z,4.72
2019-04-29T02:06:29.172Z,5.37
2019-04-29T02:08:56.205Z,4.45
2019-04-29T02:11:23.488Z,5.17
2019-04-29T02:13:50.522Z,4.90
2019-04-29T02:16:17.571Z,5.30
2019-04-29T02:18:44.606Z,5.62
2019-04-29T02:21:11.645Z,5.92
2019-04-29T02:23:39.045Z,5.70
2019-04-29T02:26:06.083Z,6.42
2019-04-29T02:28:33.123Z,6.28
2019-04-29T02:31:00.499Z,6.42
2019-04-29T02:33:27.529Z,6.70
2019-04-29T02:35:54.893Z,6.33
2019-04-29T02:38:21.927Z,6.17
2019-04-29T02:40:48.969Z,6.12
2019-04-29T02:43:15.996Z,6.25
2019-04-29T02:45:43.043Z,5.67
2019-04-29T02:48:10.337Z,6.30
2019-04-29T02:50:37.390Z,5.83
2019-04-29T02:53:04.414Z,6.20
2019-04-29T02:55:31.787Z,5.67
2019-04-29T02:57:58.821Z,5.83
2019-04-29T03:00:25.868Z,6.30
2019-04-29T03:02:52.908Z,6.17
2019-04-29T03:05:19.947Z,5.80
2019-04-29T03:07:47.344Z,5.87
2019-04-29T03:10:14.792Z,5.62
2019-04-29T03:12:41.839Z,6.30
2019-04-29T03:15:09.196Z,6.00
2019-04-29T03:17:36.239Z,6.10
2019-04-29T03:20:03.275Z,6.22
2019-04-29T03:22:30.322Z,6.65
2019-04-29T03:24:57.359Z,6.53
2019-04-29T03:27:24.410Z,7.60
2019-04-29T03:29:51.438Z,7.80
2019-04-29T03:32:18.486Z,8.10
2019-04-29T03:34:45.783Z,9.08
2019-04-29T03:37:12.837Z,8.08
2019-04-29T03:39:39.872Z,9.15
2019-04-29T03:42:07.602Z,8.78
2019-04-29T03:44:35.922Z,9.53
2019-04-29T03:47:02.979Z,8.90
2019-04-29T03:49:30.027Z,9.45
2019-04-29T03:51:57.077Z,8.80
2019-04-29T03:54:24.422Z,7.92
2019-04-29T03:56:51.533Z,9.40
2019-04-29T03:59:19.558Z,9.20
2019-04-29T04:01:46.619Z,8.40
2019-04-29T04:04:13.941Z,9.95
2019-04-29T04:06:41.298Z,9.85
2019-04-29T04:09:08.582Z,9.68
2019-04-29T04:11:35.869Z,9.35
2019-04-29T04:14:03.162Z,9.98
2019-04-29T04:16:30.213Z,10.20
2019-04-29T04:18:57.562Z,10.13
2019-04-29T04:21:24.919Z,10.28
2019-04-29T04:23:51.983Z,11.08
2019-04-29T04:26:19.258Z,10.18
2019-04-29T04:28:46.308Z,10.72
2019-04-29T04:31:13.649Z,10.15
2019-04-29T04:33:40.698Z,11.00
2019-04-29T04:36:07.984Z,10.45
2019-04-29T04:38:35.047Z,11.33
2019-04-29T04:41:02.438Z,11.35
2019-04-29T04:43:29.716Z,11.10
2019-04-29T04:45:56.760Z,11.88
2019-04-29T04:48:24.086Z,11.45
2019-04-29T04:50:51.437Z,10.75
2019-04-29T04:53:18.490Z,11.78
2019-04-29T04:55:45.847Z,11.22
2019-04-29T04:58:13.201Z,12.10
2019-04-29T05:00:40.550Z,11.03
2019-04-29T05:03:07.602Z,11.57
2019-04-29T05:05:34.651Z,12.33
2019-04-29T05:08:01.705Z,11.28
2019-04-29T05:10:28.747Z,11.33
2019-04-29T05:12:56.102Z,10.63
2019-04-29T05:15:23.137Z,12.45
2019-04-29T05:17:53.058Z,12.18
2019-04-29T05:20:18.938Z,11.48
2019-04-29T05:22:50.275Z,10.53
2019-04-29T05:25:17.312Z,10.32
2019-04-29T05:27:44.362Z,12.18
2019-04-29T05:30:11.637Z,11.25
2019-04-29T05:32:38.685Z,11.30
2019-04-29T05:35:05.979Z,10.30
2019-04-29T05:37:33.018Z,11.20
2019-04-29T05:40:00.382Z,10.60
2019-04-29T05:42:27.418Z,11.68
2019-04-29T05:44:54.469Z,10.53
2019-04-29T05:47:21.510Z,11.43
2019-04-29T05:49:48.881Z,11.15
2019-04-29T05:52:15.927Z,11.15
2019-04-29T05:54:42.979Z,12.05
2019-04-29T05:57:10.268Z,11.40
2019-04-29T05:59:37.322Z,11.12
2019-04-29T06:02:04.634Z,10.95
2019-04-29T06:04:31.692Z,10.95
2019-04-29T06:06:58.732Z,12.00
2019-04-29T06:09:26.091Z,10.78
2019-04-29T06:11:53.130Z,10.40
2019-04-29T06:14:22.155Z,10.08
2019-04-29T06:16:52.552Z,10.00
2019-04-29T06:19:18.473Z,10.38
2019-04-29T06:21:45.512Z,10.23
2019-04-29T06:24:12.800Z,9.68
2019-04-29T06:26:40.129Z,10.30
2019-04-29T06:29:07.185Z,9.40
2019-04-29T06:31:39.774Z,10.45
2019-04-29T06:34:07.138Z,9.70
2019-04-29T06:36:34.465Z,9.88
2019-04-29T06:39:01.826Z,10.00
2019-04-29T06:41:30.420Z,9.53
2019-04-29T06:44:00.669Z,9.25
2019-04-29T06:46:26.205Z,9.75
2019-04-29T06:48:53.493Z,8.83
2019-04-29T06:51:20.620Z,9.23
2019-04-29T06:59:22.577Z,8.03
2019-04-29T07:01:49.613Z,8.60
2019-04-29T07:04:16.666Z,9.35
2019-04-29T07:06:56.802Z,9.23
2019-04-29T07:09:12.731Z,8.48
2019-04-29T07:11:40.074Z,8.83
2019-04-29T07:14:07.393Z,8.18
2019-04-29T07:16:34.755Z,9.00
2019-04-29T07:19:02.114Z,8.05
2019-04-29T07:21:29.158Z,7.28
2019-04-29T07:23:56.195Z,7.85
2019-04-29T07:26:23.248Z,7.83
2019-04-29T07:28:53.317Z,8.53
2019-04-29T07:31:19.049Z,7.78
2019-04-29T07:33:48.212Z,8.35
2019-04-29T07:36:18.728Z,7.80
2019-04-29T07:38:46.523Z,7.90
2019-04-29T07:41:14.277Z,8.18
2019-04-29T07:43:43.050Z,9.18
2019-04-29T07:46:10.570Z,9.58
2019-04-29T07:48:41.847Z,27.42
2019-04-29T07:51:06.694Z,20.37
2019-04-29T07:53:38.764Z,10.82
2019-04-29T07:56:06.364Z,8.58
2019-04-29T07:58:31.918Z,8.53
2019-04-29T08:00:58.970Z,8.63
2019-04-29T08:03:26.005Z,7.95
2019-04-29T08:05:53.053Z,8.50
2019-04-29T08:08:21.218Z,7.83
2019-04-29T08:10:56.076Z,8.10
2019-04-29T08:13:17.892Z,7.95
2019-04-29T08:15:45.297Z,8.03
2019-04-29T08:18:16.268Z,9.70
2019-04-29T08:20:41.840Z,8.25
2019-04-29T08:23:09.108Z,9.38
2019-04-29T08:25:36.406Z,8.25
2019-04-29T08:28:03.452Z,8.13
2019-04-29T08:30:30.511Z,10.05
2019-04-29T08:32:57.546Z,7.17
2019-04-29T08:35:24.595Z,7.00
2019-04-29T08:37:51.637Z,7.50
2019-04-29T08:40:18.680Z,7.78
2019-04-29T08:42:46.926Z,7.25
2019-04-29T08:45:15.710Z,8.15
2019-04-29T08:47:43.065Z,6.83
2019-04-29T08:50:11.172Z,7.17
2019-04-29T08:52:38.492Z,6.92
2019-04-29T08:55:05.858Z,6.45
2019-04-29T09:00:04.993Z,6.67
2019-04-29T09:02:35.046Z,5.58
2019-04-29T09:05:01.133Z,5.90
2019-04-29T09:07:28.182Z,6.50
2019-04-29T09:09:56.136Z,6.50
2019-04-29T09:12:29.019Z,6.65
2019-04-29T09:14:52.801Z,5.97
2019-04-29T09:17:20.883Z,6.25
2019-04-29T09:19:48.344Z,5.53
2019-04-29T09:22:15.613Z,6.20
2019-04-29T09:24:43.516Z,6.20
2019-04-29T09:27:12.041Z,5.22
2019-04-29T09:29:39.371Z,5.78
2019-04-29T09:32:06.720Z,5.53
2019-04-29T09:34:34.731Z,5.25
2019-04-29T09:37:01.774Z,7.83
2019-04-29T09:39:42.438Z,8.53
2019-04-29T09:41:58.998Z,7.05
2019-04-29T09:44:26.368Z,6.00
2019-04-29T09:46:53.721Z,5.58
2019-04-29T09:49:20.766Z,5.95
2019-04-29T09:51:48.076Z,4.50
2019-04-29T09:54:16.245Z,6.20
2019-04-29T09:56:44.351Z,5.35
2019-04-29T09:59:11.630Z,7.50
2019-04-29T10:01:38.920Z,7.22
2019-04-29T10:04:05.961Z,4.75
2019-04-29T10:06:33.280Z,4.55
2019-04-29T10:09:00.334Z,5.17
2019-04-29T10:11:29.322Z,5.70
2019-04-29T10:13:56.380Z,10.53
2019-04-29T10:16:23.829Z,9.65
2019-04-29T10:18:50.888Z,7.33
2019-04-29T10:21:21.880Z,17.32
2019-04-29T10:23:46.923Z,7.92
2019-04-29T10:26:13.959Z,3.45
2019-04-29T10:28:41.015Z,3.12
2019-04-29T10:31:08.056Z,2.87
2019-04-29T10:33:35.415Z,2.45
2019-04-29T10:36:02.787Z,2.75
2019-04-29T10:38:30.006Z,2.70
2019-04-29T10:41:00.580Z,2.85
2019-04-29T10:43:26.284Z,2.47
2019-04-29T10:45:53.323Z,2.70
2019-04-29T10:48:20.365Z,2.72
2019-04-29T10:50:52.054Z,2.72
2019-04-29T10:53:18.043Z,2.85
2019-04-29T10:55:45.607Z,2.70
2019-04-29T10:58:14.003Z,2.60
2019-04-29T11:00:41.046Z,3.80
2019-04-29T11:03:08.100Z,2.92
2019-04-29T11:05:35.205Z,2.67
2019-04-29T11:08:04.272Z,3.00
2019-04-29T11:10:31.888Z,2.72
2019-04-29T11:12:59.238Z,2.20
2019-04-29T11:15:30.633Z,2.70
2019-04-29T11:17:59.339Z,3.08
2019-04-29T11:20:24.844Z,2.87
2019-04-29T11:22:52.369Z,2.87
2019-04-29T11:25:19.709Z,2.95
2019-04-29T11:27:47.074Z,3.25
2019-04-29T11:30:14.415Z,2.75
2019-04-29T11:32:41.774Z,2.15
2019-04-29T11:35:08.820Z,2.15
2019-04-29T11:37:36.193Z,2.12
2019-04-29T11:40:03.239Z,2.70
2019-04-29T11:42:31.873Z,2.30
2019-04-29T11:45:01.890Z,2.20
2019-04-29T11:47:28.468Z,2.10
2019-04-29T11:49:55.522Z,2.50
2019-04-29T11:52:23.630Z,2.45
2019-04-29T11:54:51.664Z,2.50
2019-04-29T11:57:18.712Z,2.47
2019-04-29T11:59:45.764Z,4.35
2019-04-29T12:02:12.797Z,4.00
2019-04-29T12:04:42.148Z,2.72
2019-04-29T12:07:08.898Z,6.97
2019-04-29T12:09:35.952Z,6.55
2019-04-29T12:12:02.988Z,6.53
2019-04-29T12:14:33.797Z,3.40
2019-04-29T12:16:59.120Z,4.55
2019-04-29T12:19:26.172Z,4.00
2019-04-29T12:21:53.478Z,3.67
2019-04-29T12:24:20.526Z,6.12
2019-04-29T12:26:47.571Z,3.45
2019-04-29T12:29:18.369Z,4.90
2019-04-29T12:31:44.877Z,6.33
2019-04-29T12:34:13.223Z,7.42
2019-04-29T12:36:54.629Z,10.32
2019-04-29T12:39:09.695Z,9.73
2019-04-29T12:41:48.192Z,10.98
2019-04-29T12:44:05.475Z,8.08
2019-04-29T12:46:32.866Z,5.72
2019-04-29T12:49:03.517Z,3.90
2019-04-29T12:51:28.987Z,3.02
2019-04-29T12:53:56.017Z,5.08
2019-04-29T12:56:25.961Z,7.37
2019-04-29T12:58:55.136Z,3.35
2019-04-29T13:01:20.547Z,3.15
2019-04-29T13:03:47.933Z,5.17
2019-04-29T13:06:14.992Z,11.43
2019-04-29T13:08:42.340Z,6.78
2019-04-29T13:11:09.714Z,6.15
2019-04-29T13:13:36.751Z,4.87
2019-04-29T13:16:04.097Z,3.42
2019-04-29T13:18:31.137Z,4.30
2019-04-29T13:21:09.477Z,6.80
2019-04-29T13:23:34.682Z,10.75
2019-04-29T13:25:57.845Z,17.32
2019-04-29T13:28:30.253Z,14.18
2019-04-29T13:30:56.943Z,27.07
2019-04-29T13:33:23.469Z,25.50
2019-04-29T13:35:50.822Z,20.15
2019-04-29T13:38:17.869Z,32.75
2019-04-29T13:40:45.996Z,27.67
2019-04-29T13:43:13.314Z,25.37
2019-04-29T13:45:40.374Z,24.50
2019-04-29T13:48:09.058Z,17.12
2019-04-29T13:50:39.815Z,9.83
2019-04-29T13:53:05.331Z,10.80
2019-04-29T13:55:47.954Z,7.85
2019-04-29T13:58:01.435Z,5.28
2019-04-29T14:00:28.777Z,3.10
2019-04-29T14:02:59.322Z,2.85
2019-04-29T14:05:24.920Z,2.72
2019-04-29T14:07:52.710Z,2.83
2019-04-29T14:10:20.707Z,2.52
2019-04-29T14:12:51.129Z,2.87
2019-04-29T14:15:16.798Z,2.70
2019-04-29T14:17:44.918Z,2.92
2019-04-29T14:20:15.756Z,2.60
2019-04-29T14:22:41.024Z,3.10
2019-04-29T14:25:08.371Z,2.92
2019-04-29T14:27:35.748Z,2.72
2019-04-29T14:30:06.847Z,2.62
2019-04-29T14:32:37.909Z,2.75
2019-04-29T14:35:02.053Z,2.95
2019-04-29T14:37:29.654Z,2.77
2019-04-29T14:39:57.023Z,3.42
2019-04-29T14:42:25.642Z,3.62
2019-04-29T14:44:53.099Z,3.72
2019-04-29T14:47:20.402Z,3.02
2019-04-29T14:49:47.766Z,3.20
2019-04-29T14:52:15.076Z,3.50
2019-04-29T14:54:43.606Z,3.17
2019-04-29T14:57:10.952Z,2.98
2019-04-29T14:59:38.227Z,2.55
2019-04-29T15:04:40.910Z,2.20
2019-04-29T15:07:08.398Z,1.80
2019-04-29T15:09:46.583Z,2.10
2019-04-29T15:12:04.717Z,2.17
2019-04-29T15:14:32.341Z,1.67
2019-04-29T15:16:59.576Z,1.50
2019-04-29T15:19:27.075Z,1.42
2019-04-29T15:21:54.341Z,2.15
2019-04-29T15:24:21.812Z,2.27
2019-04-29T15:26:49.807Z,2.02
2019-04-29T15:29:17.235Z,2.47
2019-04-29T15:31:47.183Z,2.65
2019-04-29T15:34:14.583Z,2.55
2019-04-29T15:36:42.126Z,2.52
2019-04-29T15:39:11.622Z,2.60
2019-04-29T15:41:38.861Z,4.35
2019-04-29T15:44:08.130Z,3.58
2019-04-29T15:46:46.383Z,3.47
2019-04-29T15:49:03.552Z,3.08
2019-04-29T15:51:30.891Z,3.67
2019-04-29T15:53:58.186Z,3.40
2019-04-29T15:56:28.692Z,3.83
2019-04-29T15:58:54.232Z,3.60
2019-04-29T16:01:27.293Z,3.02
2019-04-29T16:03:54.854Z,3.60
2019-04-29T16:06:21.384Z,3.40
2019-04-29T16:08:48.238Z,3.92
2019-04-29T16:11:15.271Z,4.22
2019-04-29T16:13:47.750Z,3.80
2019-04-29T16:16:11.404Z,5.05
2019-04-29T16:18:38.783Z,4.40
2019-04-29T16:21:05.812Z,3.90
2019-04-29T16:23:38.655Z,4.62
2019-04-29T16:26:02.361Z,4.42
2019-04-29T16:28:31.564Z,4.22
2019-04-29T16:30:58.138Z,4.80
2019-04-29T16:33:25.187Z,4.42
2019-04-29T16:35:52.219Z,4.50
2019-04-29T16:38:20.768Z,4.20
2019-04-29T16:40:48.766Z,4.30
2019-04-29T16:43:16.201Z,5.42
2019-04-29T16:45:44.219Z,4.45
2019-04-29T16:48:13.681Z,4.30
2019-04-29T16:50:41.028Z,4.05
2019-04-29T16:53:08.385Z,20.70
2019-04-29T16:55:42.898Z,9.33
2019-04-29T16:58:07.697Z,5.92
2019-04-29T17:00:33.499Z,4.85
2019-04-29T17:03:00.530Z,5.03
2019-04-29T17:05:27.584Z,5.10
2019-04-29T17:07:54.611Z,4.62
2019-04-29T17:10:21.663Z,4.90
2019-04-29T17:15:37.698Z,9.23
2019-04-29T17:18:05.099Z,11.45
2019-04-29T17:20:32.434Z,15.65
2019-04-29T17:22:59.781Z,13.20
2019-04-29T17:25:26.827Z,7.28
2019-04-29T17:27:54.211Z,6.42
2019-04-29T17:30:21.530Z,6.30
2019-04-29T17:32:50.018Z,6.65
2019-04-29T17:35:21.460Z,5.95
2019-04-29T17:37:46.639Z,6.03
2019-04-29T17:40:19.572Z,5.55
2019-04-29T17:43:00.792Z,5.22
2019-04-29T17:45:32.596Z,5.60
2019-04-29T17:50:30.719Z,14.38
2019-04-29T17:53:09.139Z,8.45
2019-04-29T17:58:07.303Z,6.33
2019-04-29T18:03:12.504Z,7.22
2019-04-29T18:05:54.440Z,5.75
2019-04-29T18:08:15.344Z,5.53
2019-04-29T18:10:42.393Z,6.40
2019-04-29T18:13:18.775Z,6.17
2019-04-29T18:18:17.674Z,6.53
2019-04-29T18:20:47.178Z,6.65
2019-04-29T18:23:18.791Z,6.70
2019-04-29T18:25:44.842Z,7.15
2019-04-29T18:28:13.896Z,6.78
2019-04-29T18:30:41.216Z,7.08
2019-04-29T18:33:08.981Z,6.87
2019-04-29T18:43:23.067Z,6.75
2019-04-29T18:48:22.014Z,7.20
2019-04-29T18:50:49.187Z,47.10
2019-04-29T18:53:22.566Z,11.40
2019-04-29T18:58:28.765Z,19.82
2019-04-29T19:00:56.477Z,13.00
2019-04-29T19:03:25.318Z,11.35
2019-04-29T19:08:32.068Z,8.48
2019-04-29T19:13:37.815Z,38.25
2019-04-29T19:18:38.924Z,6.28
2019-04-29T19:21:10.496Z,5.65
2019-04-29T19:23:38.651Z,5.70
2019-04-29T19:26:05.928Z,6.12
2019-04-29T19:28:45.429Z,8.93
2019-04-29T19:33:50.571Z,9.65
2019-04-29T19:36:21.491Z,5.62
2019-04-29T19:38:47.393Z,13.32
2019-04-29T19:46:36.751Z,11.22
2019-04-29T19:49:07.419Z,12.55
2019-04-29T19:51:32.111Z,14.73
2019-04-29T19:54:09.245Z,13.80
2019-04-29T19:56:40.956Z,13.70
2019-04-29T19:59:13.750Z,15.78
2019-04-29T20:01:49.666Z,17.42
2019-04-29T20:04:20.914Z,14.15
2019-04-29T20:06:48.210Z,14.07
2019-04-29T20:09:21.389Z,12.58
2019-04-29T20:11:48.394Z,13.98
2019-04-29T20:14:20.693Z,6.40
2019-04-29T20:19:34.231Z,5.22
2019-04-29T20:22:05.557Z,5.22
2019-04-29T20:24:30.694Z,9.83
2019-04-29T20:27:00.192Z,10.63
2019-04-29T20:29:33.801Z,11.00
2019-04-29T20:34:46.080Z,11.05
2019-04-29T20:37:16.213Z,11.53
2019-04-29T20:39:45.433Z,11.43
2019-04-29T20:44:55.219Z,12.35
2019-04-29T20:47:37.282Z,11.65
2019-04-29T20:50:08.977Z,12.60
2019-04-29T20:52:36.692Z,12.40
2019-04-29T20:55:06.507Z,13.03
2019-04-29T20:57:37.534Z,13.25
2019-04-29T21:00:11.901Z,13.78
2019-04-29T21:02:41.579Z,13.75
2019-04-29T21:05:23.319Z,13.98
2019-04-29T21:10:24.218Z,14.35
2019-04-29T21:12:51.284Z,15.83
2019-04-29T21:15:36.183Z,16.15
2019-04-29T21:18:10.435Z,15.83
2019-04-29T21:20:39.988Z,16.77
2019-04-29T21:25:38.482Z,16.90
2019-04-29T21:28:05.757Z,17.70
2019-04-29T21:30:42.274Z,18.30
2019-04-29T21:35:37.959Z,18.60
2019-04-29T21:38:05.204Z,18.32
2019-04-29T21:40:35.067Z,18.02
2019-04-29T21:43:08.103Z,18.02
2019-04-29T21:45:48.364Z,17.57
2019-04-29T21:48:16.744Z,16.93
2019-04-29T21:50:44.935Z,19.10
2019-04-29T21:53:15.085Z,18.42
2019-04-29T21:55:45.778Z,18.80
2019-04-29T21:58:17.122Z,18.82
2019-04-29T22:00:48.673Z,19.35
2019-04-29T22:03:26.509Z,19.77
2019-04-29T22:08:45.116Z,15.08
2019-04-29T22:11:19.646Z,20.52
2019-04-29T22:13:46.709Z,20.10
2019-04-29T22:16:18.254Z,20.77
2019-04-29T22:18:51.768Z,21.33
2019-04-29T22:21:25.912Z,20.43
2019-04-29T22:23:52.841Z,21.25
2019-04-29T22:26:23.418Z,20.68
2019-04-29T22:31:26.825Z,20.90
2019-04-29T22:36:43.356Z,21.10
2019-04-29T22:39:10.713Z,21.73
2019-04-29T22:41:37.752Z,20.88
2019-04-29T22:44:04.978Z,22.98
2019-04-29T22:46:32.017Z,22.22
2019-04-29T22:48:59.070Z,20.90
2019-04-29T22:51:26.462Z,22.87
2019-04-29T22:53:55.688Z,20.97
2019-04-29T22:56:22.911Z,21.17
2019-04-29T22:58:50.289Z,20.80
2019-04-29T23:01:17.768Z,20.30
2019-04-29T23:03:45.148Z,22.22
2019-04-29T23:06:15.721Z,22.02
2019-04-29T23:08:44.799Z,21.48
2019-04-29T23:11:12.059Z,20.30
2019-04-29T23:13:39.101Z,21.70
2019-04-29T23:16:06.159Z,21.02
2019-04-29T23:18:41.619Z,21.42
2019-04-29T23:21:03.934Z,21.15
2019-04-29T23:23:33.752Z,20.57
2019-04-29T23:26:04.192Z,20.40
2019-04-29T23:28:28.811Z,20.90
2019-04-29T23:30:56.065Z,20.75
2019-04-29T23:33:24.550Z,21.87
2019-04-29T23:35:52.090Z,21.85
2019-04-29T23:38:19.365Z,19.95
2019-04-29T23:40:49.746Z,20.85
2019-04-29T23:43:15.797Z,20.23
2019-04-29T23:45:42.806Z,20.40
2019-04-29T23:48:10.089Z,20.82
2019-04-29T23:50:37.142Z,20.30
2019-04-29T23:53:05.786Z,20.45
2019-04-29T23:55:33.197Z,20.65
2019-04-29T23:58:03.729Z,19.37
